Time;durP1;ratioP1;P1;durP2;ratioP2;P2;SDS_P1;SDS_P2;PMS_P1;PMS_P2;Temp;Humidity;BMP_temperature;BMP_pressure;BME280_temperature;BME280_humidity;BME280_pressure;Samples;Min_cycle;Max_cycle;Signal;HPM_P1;HPM_P2
2021/08/17 00:01:34;;;;;;;;;23.33;22.33;;;;;;;;5052016;28;45487;-87
2021/08/17 00:04:00;;;;;;;;;24.25;16.75;;;;;;;;5049645;28;45560;-88
2021/08/17 00:06:25;;;;;;;;;24.00;17.00;;;;;;;;5045941;28;46479;-88
2021/08/17 00:08:50;;;;;;;;;21.33;15.67;;;;;;;;5019222;28;45879;-88
2021/08/17 00:11:15;;;;;;;;;22.67;17.33;;;;;;;;5048246;28;45485;-88
2021/08/17 00:13:42;;;;;;;;;18.33;15.33;;;;;;;;5050281;28;45595;-88
2021/08/17 00:16:07;;;;;;;;;25.50;19.75;;;;;;;;5044599;28;46416;-88
2021/08/17 00:18:32;;;;;;;;;22.33;19.33;;;;;;;;5043371;28;46799;-88
2021/08/17 00:20:57;;;;;;;;;19.00;14.33;;;;;;;;5061968;27;45469;-87
2021/08/17 00:23:23;;;;;;;;;24.00;17.00;;;;;;;;5038392;28;45351;-88
2021/08/17 00:25:48;;;;;;;;;18.33;18.00;;;;;;;;5049151;28;45611;-88
2021/08/17 00:28:13;;;;;;;;;20.75;14.00;;;;;;;;5051104;28;45562;-88
2021/08/17 00:30:39;;;;;;;;;20.00;14.67;;;;;;;;5050188;28;45577;-88
2021/08/17 00:33:04;;;;;;;;;22.50;17.50;;;;;;;;5032424;27;45508;-88
2021/08/17 00:35:29;;;;;;;;;20.33;17.67;;;;;;;;5040203;28;47080;-88
2021/08/17 00:37:54;;;;;;;;;19.00;14.00;;;;;;;;5053821;28;45568;-87
2021/08/17 00:40:19;;;;;;;;;19.00;14.00;;;;;;;;5058818;28;50356;-88
2021/08/17 00:42:46;;;;;;;;;24.00;17.67;;;;;;;;5039576;28;45621;-87
2021/08/17 00:45:21;;;;;;;;;17.00;13.75;;;;;;;;5044143;28;45612;-88
2021/08/17 00:47:48;;;;;;;;;18.25;14.75;;;;;;;;5058259;28;45667;-88
2021/08/17 00:50:13;;;;;;;;;21.00;12.50;;;;;;;;5056672;28;45618;-87
2021/08/17 00:52:39;;;;;;;;;17.33;16.00;;;;;;;;5055769;28;45640;-88
2021/08/17 00:55:04;;;;;;;;;19.25;15.00;;;;;;;;5057373;28;45465;-87
2021/08/17 00:57:30;;;;;;;;;20.75;17.25;;;;;;;;5044243;28;45596;-88
2021/08/17 00:59:55;;;;;;;;;20.50;15.00;;;;;;;;5032870;28;45600;-88
2021/08/17 01:02:21;;;;;;;;;18.33;16.33;;;;;;;;5056097;28;45549;-87
2021/08/17 01:04:46;;;;;;;;;21.67;15.67;;;;;;;;5038814;28;47096;-88
2021/08/17 01:07:11;;;;;;;;;20.33;16.67;;;;;;;;5048314;28;45487;-88
2021/08/17 01:09:37;;;;;;;;;22.75;14.75;;;;;;;;5027236;28;45488;-88
2021/08/17 01:12:02;;;;;;;;;22.75;16.00;;;;;;;;5035775;28;45372;-86
2021/08/17 01:14:28;;;;;;;;;21.25;16.00;;;;;;;;5034875;28;46546;-87
2021/08/17 01:16:53;;;;;;;;;21.00;14.75;;;;;;;;5018573;28;46474;-87
2021/08/17 01:19:20;;;;;;;;;23.67;17.67;;;;;;;;5032938;28;45395;-88
2021/08/17 01:21:45;;;;;;;;;15.00;14.00;;;;;;;;5007124;28;45556;-87
2021/08/17 01:24:10;;;;;;;;;22.00;15.50;;;;;;;;5035033;28;45520;-87
2021/08/17 01:26:35;;;;;;;;;19.00;14.67;;;;;;;;5031000;28;45380;-88
2021/08/17 01:29:01;;;;;;;;;21.33;15.00;;;;;;;;5027302;28;45504;-88
2021/08/17 01:31:26;;;;;;;;;20.33;12.67;;;;;;;;5029961;28;45675;-88
2021/08/17 01:33:51;;;;;;;;;13.50;12.25;;;;;;;;5013456;28;48121;-88
2021/08/17 01:36:16;;;;;;;;;20.50;17.00;;;;;;;;5020009;28;45960;-88
2021/08/17 01:38:49;;;;;;;;;17.75;15.00;;;;;;;;5030536;28;45533;-87
2021/08/17 01:41:15;;;;;;;;;15.25;12.75;;;;;;;;5033506;28;45565;-87
2021/08/17 01:43:40;;;;;;;;;17.50;14.00;;;;;;;;5034156;28;47287;-88
2021/08/17 01:46:06;;;;;;;;;17.50;14.00;;;;;;;;5030502;28;45475;-88
2021/08/17 01:48:31;;;;;;;;;20.75;13.00;;;;;;;;5022027;28;45323;-88
2021/08/17 01:50:57;;;;;;;;;17.25;12.25;;;;;;;;5034564;28;45386;-88
2021/08/17 01:53:24;;;;;;;;;16.00;10.75;;;;;;;;5026631;28;46071;-88
2021/08/17 01:55:52;;;;;;;;;20.75;14.50;;;;;;;;5025193;28;45676;-88
2021/08/17 01:58:17;;;;;;;;;15.50;13.00;;;;;;;;5030937;28;45350;-88
2021/08/17 02:00:43;;;;;;;;;13.33;10.00;;;;;;;;5030094;28;45553;-88
2021/08/17 02:03:08;;;;;;;;;15.25;13.50;;;;;;;;5022283;28;46449;-87
2021/08/17 02:05:34;;;;;;;;;15.33;14.33;;;;;;;;5032818;28;45664;-88
2021/08/17 02:08:01;;;;;;;;;16.00;12.00;;;;;;;;5014219;28;45643;-88
2021/08/17 02:10:27;;;;;;;;;13.75;12.00;;;;;;;;5032988;28;45681;-87
2021/08/17 02:12:52;;;;;;;;;19.33;15.00;;;;;;;;5031292;28;47263;-88
2021/08/17 02:15:17;;;;;;;;;15.67;11.33;;;;;;;;5032573;28;45277;-87
2021/08/17 02:17:42;;;;;;;;;19.00;12.50;;;;;;;;5018517;28;54768;-87
2021/08/17 02:20:08;;;;;;;;;18.33;14.00;;;;;;;;5011252;28;45650;-87
2021/08/17 02:22:33;;;;;;;;;17.50;13.50;;;;;;;;5021610;28;45497;-88
2021/08/17 02:24:58;;;;;;;;;14.33;13.67;;;;;;;;5028170;28;45648;-88
2021/08/17 02:27:23;;;;;;;;;16.00;10.67;;;;;;;;5004165;28;45504;-88
2021/08/17 02:29:48;;;;;;;;;12.67;12.33;;;;;;;;5032197;28;45422;-88
2021/08/17 02:32:14;;;;;;;;;12.67;12.67;;;;;;;;5022303;28;46060;-88
2021/08/17 02:34:39;;;;;;;;;18.67;12.67;;;;;;;;5026298;28;45604;-88
2021/08/17 02:37:04;;;;;;;;;14.67;13.00;;;;;;;;5021046;28;45571;-88
2021/08/17 02:39:29;;;;;;;;;13.33;10.33;;;;;;;;5031030;28;45502;-88
2021/08/17 02:41:54;;;;;;;;;12.25;11.75;;;;;;;;5006497;28;46215;-88
2021/08/17 02:44:20;;;;;;;;;16.00;13.33;;;;;;;;5028881;28;45986;-87
2021/08/17 02:46:45;;;;;;;;;15.67;12.33;;;;;;;;5011860;28;45494;-88
2021/08/17 02:49:10;;;;;;;;;10.00;10.00;;;;;;;;5020903;28;45379;-87
2021/08/17 02:51:35;;;;;;;;;14.00;11.25;;;;;;;;5029752;28;46522;-88
2021/08/17 02:54:00;;;;;;;;;11.00;9.00;;;;;;;;5015649;28;45593;-88
2021/08/17 02:56:26;;;;;;;;;14.33;8.67;;;;;;;;5029915;28;45557;-87
2021/08/17 02:58:51;;;;;;;;;21.00;11.33;;;;;;;;5026108;28;45364;-88
2021/08/17 03:01:16;;;;;;;;;13.50;11.75;;;;;;;;5014352;28;46286;-87
2021/08/17 03:03:41;;;;;;;;;16.25;12.50;;;;;;;;5018348;28;45468;-87
2021/08/17 03:06:07;;;;;;;;;16.25;12.75;;;;;;;;5026634;28;45479;-88
2021/08/17 03:08:32;;;;;;;;;12.67;12.00;;;;;;;;5026790;28;45481;-88
2021/08/17 03:10:57;;;;;;;;;11.33;11.33;;;;;;;;5036682;28;45939;-88
2021/08/17 03:13:22;;;;;;;;;12.67;11.00;;;;;;;;5030772;28;45418;-88
2021/08/17 03:15:47;;;;;;;;;14.33;13.33;;;;;;;;5037005;28;45521;-87
2021/08/17 03:18:13;;;;;;;;;14.00;11.75;;;;;;;;5022062;28;45532;-88
2021/08/17 03:20:38;;;;;;;;;13.75;12.00;;;;;;;;5043548;28;46356;-87
2021/08/17 03:23:04;;;;;;;;;17.00;12.50;;;;;;;;5036750;28;45381;-87
2021/08/17 03:25:29;;;;;;;;;12.00;9.75;;;;;;;;5041223;27;45416;-88
2021/08/17 03:27:55;;;;;;;;;19.33;10.67;;;;;;;;5037065;28;45398;-87
2021/08/17 03:30:21;;;;;;;;;15.75;12.50;;;;;;;;5037217;28;48070;-88
2021/08/17 03:32:47;;;;;;;;;17.25;12.75;;;;;;;;5035666;28;45426;-88
2021/08/17 03:35:12;;;;;;;;;15.75;13.00;;;;;;;;5037026;28;45552;-88
2021/08/17 03:37:38;;;;;;;;;14.00;10.00;;;;;;;;5045839;28;45610;-87
2021/08/17 03:40:07;;;;;;;;;19.00;12.00;;;;;;;;5038739;28;46579;-88
2021/08/17 03:42:32;;;;;;;;;15.50;11.50;;;;;;;;5020456;28;45730;-87
2021/08/17 03:44:58;;;;;;;;;15.67;12.33;;;;;;;;5034062;28;45397;-87
2021/08/17 03:47:23;;;;;;;;;15.25;11.25;;;;;;;;5033478;28;45463;-88
2021/08/17 03:49:49;;;;;;;;;16.75;13.00;;;;;;;;5037032;27;46453;-88
2021/08/17 03:52:14;;;;;;;;;14.67;13.33;;;;;;;;5030212;28;45620;-87
2021/08/17 03:54:39;;;;;;;;;16.50;14.25;;;;;;;;5036003;28;45429;-87
2021/08/17 03:57:04;;;;;;;;;15.50;11.75;;;;;;;;5022563;28;45338;-88
2021/08/17 03:59:30;;;;;;;;;16.50;13.25;;;;;;;;5042347;28;45490;-88
2021/08/17 04:01:55;;;;;;;;;14.67;13.00;;;;;;;;5039098;28;45839;-87
2021/08/17 04:04:20;;;;;;;;;15.33;12.00;;;;;;;;5034803;28;45577;-88
2021/08/17 04:06:45;;;;;;;;;18.67;15.33;;;;;;;;5021238;28;45477;-88
2021/08/17 04:09:10;;;;;;;;;12.67;11.00;;;;;;;;5026500;28;47635;-88
2021/08/17 04:11:35;;;;;;;;;13.67;12.00;;;;;;;;5037306;28;45500;-88
2021/08/17 04:14:01;;;;;;;;;15.00;11.00;;;;;;;;5039328;28;47202;-88
2021/08/17 04:16:26;;;;;;;;;19.75;13.00;;;;;;;;5045540;28;45387;-88
2021/08/17 04:18:51;;;;;;;;;15.33;13.00;;;;;;;;5041970;28;45566;-88
2021/08/17 04:21:16;;;;;;;;;16.67;11.67;;;;;;;;5026243;28;46335;-87
2021/08/17 04:23:41;;;;;;;;;12.00;11.00;;;;;;;;5037833;28;45658;-87
2021/08/17 04:26:07;;;;;;;;;14.33;12.33;;;;;;;;5019954;28;45612;-87
2021/08/17 04:28:32;;;;;;;;;17.67;13.00;;;;;;;;5037325;28;46174;-87
2021/08/17 04:30:57;;;;;;;;;14.00;11.75;;;;;;;;5023821;28;46024;-87
2021/08/17 04:33:23;;;;;;;;;14.00;10.33;;;;;;;;5037562;28;45454;-88
2021/08/17 04:35:48;;;;;;;;;17.00;12.25;;;;;;;;5035459;28;45506;-87
2021/08/17 04:38:13;;;;;;;;;11.33;10.33;;;;;;;;5034567;28;46954;-88
2021/08/17 04:40:38;;;;;;;;;14.25;12.75;;;;;;;;5040006;28;45519;-88
2021/08/17 04:43:03;;;;;;;;;20.00;13.67;;;;;;;;5033485;28;45594;-88
2021/08/17 04:45:29;;;;;;;;;12.00;11.00;;;;;;;;5018485;28;45414;-87
2021/08/17 04:47:55;;;;;;;;;10.50;9.75;;;;;;;;5024431;28;47758;-87
2021/08/17 04:50:21;;;;;;;;;15.50;12.50;;;;;;;;5039852;28;45601;-87
2021/08/17 04:52:46;;;;;;;;;14.75;11.00;;;;;;;;5029630;28;45497;-87
2021/08/17 04:55:12;;;;;;;;;11.75;10.75;;;;;;;;5034333;28;45483;-87
2021/08/17 04:57:46;;;;;;;;;15.25;10.75;;;;;;;;5036111;28;45439;-87
2021/08/17 05:00:12;;;;;;;;;14.50;13.25;;;;;;;;5035330;28;45510;-88
2021/08/17 05:02:37;;;;;;;;;10.50;10.50;;;;;;;;5030799;28;45467;-88
2021/08/17 05:05:02;;;;;;;;;10.67;10.67;;;;;;;;5042309;28;45797;-87
2021/08/17 05:07:27;;;;;;;;;16.75;13.25;;;;;;;;5038765;28;46007;-87
2021/08/17 05:09:53;;;;;;;;;14.33;11.33;;;;;;;;5036709;28;45353;-87
2021/08/17 05:12:18;;;;;;;;;15.00;10.67;;;;;;;;5034587;28;45355;-87
2021/08/17 05:14:43;;;;;;;;;15.00;13.33;;;;;;;;5033611;28;45459;-87
2021/08/17 05:17:08;;;;;;;;;15.67;12.33;;;;;;;;5034061;28;45545;-87
2021/08/17 05:19:33;;;;;;;;;14.67;12.00;;;;;;;;5034399;28;45517;-87
2021/08/17 05:21:59;;;;;;;;;15.00;12.00;;;;;;;;5039166;28;45511;-88
2021/08/17 05:24:24;;;;;;;;;16.67;12.00;;;;;;;;5038577;28;45561;-87
2021/08/17 05:26:49;;;;;;;;;17.00;12.00;;;;;;;;5033605;28;48364;-88
2021/08/17 05:29:14;;;;;;;;;18.00;12.67;;;;;;;;5025035;28;45494;-88
2021/08/17 05:31:39;;;;;;;;;16.33;13.67;;;;;;;;5042247;28;45505;-87
2021/08/17 05:34:04;;;;;;;;;14.67;13.00;;;;;;;;5043079;28;46643;-87
2021/08/17 05:36:30;;;;;;;;;14.33;8.33;;;;;;;;5022625;28;47030;-88
2021/08/17 05:38:55;;;;;;;;;14.00;10.67;;;;;;;;5042038;28;45494;-88
2021/08/17 05:41:20;;;;;;;;;15.00;11.25;;;;;;;;5024844;28;45377;-88
2021/08/17 05:43:45;;;;;;;;;15.33;12.33;;;;;;;;5038098;28;45416;-88
2021/08/17 05:46:10;;;;;;;;;11.00;11.00;;;;;;;;5043439;28;46242;-88
2021/08/17 05:48:36;;;;;;;;;15.67;12.33;;;;;;;;5040354;28;45535;-87
2021/08/17 05:51:01;;;;;;;;;14.33;11.67;;;;;;;;5038760;28;45474;-87
2021/08/17 05:53:26;;;;;;;;;18.67;12.00;;;;;;;;5037608;28;45708;-88
2021/08/17 05:55:51;;;;;;;;;17.00;12.67;;;;;;;;5034881;28;46173;-88
2021/08/17 05:58:16;;;;;;;;;14.00;12.50;;;;;;;;5045391;28;45424;-88
2021/08/17 06:00:42;;;;;;;;;16.00;12.67;;;;;;;;5036612;28;48611;-87
2021/08/17 06:03:07;;;;;;;;;15.67;13.67;;;;;;;;5037162;28;45297;-87
2021/08/17 06:05:32;;;;;;;;;16.00;12.33;;;;;;;;5034852;28;45967;-87
2021/08/17 06:07:57;;;;;;;;;15.25;10.50;;;;;;;;5036649;28;45857;-88
2021/08/17 06:10:22;;;;;;;;;17.33;11.00;;;;;;;;5042979;28;46560;-88
2021/08/17 06:12:48;;;;;;;;;14.25;11.75;;;;;;;;5039552;28;45893;-87
2021/08/17 06:15:15;;;;;;;;;14.00;11.00;;;;;;;;5022850;27;51156;-88
2021/08/17 06:17:40;;;;;;;;;13.50;11.25;;;;;;;;5042587;28;45384;-87
2021/08/17 06:20:07;;;;;;;;;19.25;13.25;;;;;;;;5037793;28;45714;-88
2021/08/17 06:22:32;;;;;;;;;17.25;12.50;;;;;;;;5036847;28;45406;-88
2021/08/17 06:24:57;;;;;;;;;12.50;9.50;;;;;;;;5039273;28;46840;-87
2021/08/17 06:27:23;;;;;;;;;16.00;11.50;;;;;;;;5030157;27;45508;-88
2021/08/17 06:29:48;;;;;;;;;13.50;10.25;;;;;;;;5043375;28;45320;-88
2021/08/17 06:32:13;;;;;;;;;16.33;12.33;;;;;;;;5039199;28;45324;-88
2021/08/17 06:34:38;;;;;;;;;11.33;11.00;;;;;;;;5036867;28;45392;-87
2021/08/17 06:37:04;;;;;;;;;12.00;10.33;;;;;;;;5032234;28;45531;-88
2021/08/17 06:39:29;;;;;;;;;13.67;11.33;;;;;;;;5038939;28;45330;-87
2021/08/17 06:41:54;;;;;;;;;11.67;9.33;;;;;;;;5037055;28;45502;-88
2021/08/17 06:44:19;;;;;;;;;13.33;12.67;;;;;;;;5039883;28;46895;-88
2021/08/17 06:46:46;;;;;;;;;12.25;10.25;;;;;;;;5035728;28;45542;-88
2021/08/17 06:49:11;;;;;;;;;13.00;11.25;;;;;;;;5041546;28;45703;-88
2021/08/17 06:51:36;;;;;;;;;14.67;11.00;;;;;;;;5040908;28;45444;-87
2021/08/17 06:54:01;;;;;;;;;16.50;12.25;;;;;;;;5020958;28;50315;-87
2021/08/17 06:56:26;;;;;;;;;13.00;13.00;;;;;;;;5036647;28;45788;-88
2021/08/17 06:58:52;;;;;;;;;15.67;14.00;;;;;;;;5023433;28;45385;-88
2021/08/17 07:01:17;;;;;;;;;15.75;12.75;;;;;;;;5037637;28;45399;-87
2021/08/17 07:03:42;;;;;;;;;18.33;12.33;;;;;;;;5036865;28;46464;-88
2021/08/17 07:06:07;;;;;;;;;12.25;11.50;;;;;;;;5037565;28;46089;-88
2021/08/17 07:08:33;;;;;;;;;13.33;11.00;;;;;;;;5038022;28;45754;-88
2021/08/17 07:10:58;;;;;;;;;18.75;11.75;;;;;;;;5037646;28;45876;-87
2021/08/17 07:13:24;;;;;;;;;14.33;13.00;;;;;;;;5036985;28;47501;-87
2021/08/17 07:15:49;;;;;;;;;14.75;12.50;;;;;;;;5027274;28;45995;-88
2021/08/17 07:18:15;;;;;;;;;16.75;14.00;;;;;;;;5038497;28;45463;-87
2021/08/17 07:20:40;;;;;;;;;14.25;11.50;;;;;;;;5029457;28;45569;-88
2021/08/17 07:23:05;;;;;;;;;16.67;12.67;;;;;;;;5039786;28;45531;-88
2021/08/17 07:25:30;;;;;;;;;14.00;9.25;;;;;;;;5041917;28;45622;-88
2021/08/17 07:27:55;;;;;;;;;11.67;10.00;;;;;;;;5026043;28;46687;-88
2021/08/17 07:30:21;;;;;;;;;12.00;10.67;;;;;;;;5038371;28;46803;-88
2021/08/17 07:32:46;;;;;;;;;12.25;9.00;;;;;;;;5042685;28;45654;-88
2021/08/17 07:35:13;;;;;;;;;14.25;9.75;;;;;;;;5036164;28;45502;-87
2021/08/17 07:37:38;;;;;;;;;11.25;11.25;;;;;;;;5035805;28;45557;-88
2021/08/17 07:40:05;;;;;;;;;18.75;17.00;;;;;;;;5041548;28;45513;-88
2021/08/17 07:42:31;;;;;;;;;15.00;11.75;;;;;;;;5038933;28;47311;-87
2021/08/17 07:44:56;;;;;;;;;14.00;13.25;;;;;;;;5036027;28;45538;-88
2021/08/17 07:47:21;;;;;;;;;14.33;11.00;;;;;;;;5022375;28;46339;-87
2021/08/17 07:49:46;;;;;;;;;13.50;11.25;;;;;;;;5042048;28;47187;-87
2021/08/17 07:52:11;;;;;;;;;20.00;15.00;;;;;;;;5039858;28;46280;-88
2021/08/17 07:54:37;;;;;;;;;17.25;12.50;;;;;;;;5037267;28;45853;-87
2021/08/17 07:57:03;;;;;;;;;13.25;11.50;;;;;;;;5037286;28;45559;-86
2021/08/17 07:59:28;;;;;;;;;13.50;11.00;;;;;;;;5028092;28;47377;-88
2021/08/17 08:01:53;;;;;;;;;13.67;11.33;;;;;;;;5035965;28;47171;-88
2021/08/17 08:04:18;;;;;;;;;14.33;10.67;;;;;;;;5040585;28;45406;-87
2021/08/17 08:06:44;;;;;;;;;10.33;10.33;;;;;;;;5030099;28;45695;-88
2021/08/17 08:09:09;;;;;;;;;16.25;10.50;;;;;;;;5033229;28;45608;-87
2021/08/17 08:11:34;;;;;;;;;14.00;11.33;;;;;;;;5031517;28;48349;-88
2021/08/17 08:14:00;;;;;;;;;16.75;11.00;;;;;;;;5037876;28;45671;-88
2021/08/17 08:16:26;;;;;;;;;10.00;8.00;;;;;;;;5030525;28;45437;-88
2021/08/17 08:18:52;;;;;;;;;9.50;9.00;;;;;;;;5027241;28;45560;-87
2021/08/17 08:21:17;;;;;;;;;10.50;9.25;;;;;;;;5019282;28;47102;-88
2021/08/17 08:23:42;;;;;;;;;11.00;11.00;;;;;;;;5038808;28;45384;-87
2021/08/17 08:26:08;;;;;;;;;10.00;10.00;;;;;;;;5034718;28;45445;-88
2021/08/17 08:28:33;;;;;;;;;12.25;11.00;;;;;;;;5037417;28;45542;-87
2021/08/17 08:30:58;;;;;;;;;13.67;9.00;;;;;;;;5040549;28;46846;-88
2021/08/17 08:33:24;;;;;;;;;10.00;7.50;;;;;;;;5038004;28;45669;-88
2021/08/17 08:35:49;;;;;;;;;14.00;10.50;;;;;;;;5046919;28;45422;-87
2021/08/17 08:38:14;;;;;;;;;12.00;8.33;;;;;;;;5024645;28;45245;-87
2021/08/17 08:40:43;;;;;;;;;14.00;8.25;;;;;;;;5035885;28;45328;-88
2021/08/17 08:43:08;;;;;;;;;12.50;9.00;;;;;;;;5020200;28;45789;-88
2021/08/17 08:45:34;;;;;;;;;17.75;11.50;;;;;;;;5039176;28;45966;-88
2021/08/17 08:47:59;;;;;;;;;11.00;10.00;;;;;;;;5036922;28;46621;-88
2021/08/17 08:50:26;;;;;;;;;9.50;9.50;;;;;;;;5037166;28;46404;-89
2021/08/17 08:52:51;;;;;;;;;10.25;8.75;;;;;;;;5034408;28;45707;-88
2021/08/17 08:55:16;;;;;;;;;9.25;8.75;;;;;;;;5037622;28;45702;-88
2021/08/17 08:57:42;;;;;;;;;15.67;10.00;;;;;;;;5036300;28;44826;-88
2021/08/17 09:00:12;;;;;;;;;8.00;8.00;;;;;;;;5043797;28;45454;-88
2021/08/17 09:02:37;;;;;;;;;14.25;9.50;;;;;;;;5042942;28;48640;-87
2021/08/17 09:05:03;;;;;;;;;8.00;7.00;;;;;;;;5042157;28;45578;-88
2021/08/17 09:07:34;;;;;;;;;12.50;11.00;;;;;;;;5025691;28;45554;-88
2021/08/17 09:10:20;;;;;;;;;7.50;6.50;;;;;;;;5028303;28;47141;-88
2021/08/17 09:12:53;;;;;;;;;10.50;8.50;;;;;;;;5036843;28;45550;-88
2021/08/17 09:15:19;;;;;;;;;11.00;8.00;;;;;;;;5044426;28;45558;-87
2021/08/17 09:17:56;;;;;;;;;12.00;8.00;;;;;;;;5038895;28;45542;-87
2021/08/17 09:20:26;;;;;;;;;7.50;5.75;;;;;;;;5038963;28;47287;-88
2021/08/17 09:22:52;;;;;;;;;7.25;7.25;;;;;;;;5041696;28;45549;-88
2021/08/17 09:25:17;;;;;;;;;10.50;7.75;;;;;;;;5029476;28;45434;-88
2021/08/17 09:27:42;;;;;;;;;10.33;6.00;;;;;;;;5032166;28;45759;-87
2021/08/17 09:30:11;;;;;;;;;10.00;5.33;;;;;;;;5041346;28;46154;-87
2021/08/17 09:32:52;;;;;;;;;8.25;8.25;;;;;;;;5045376;28;45613;-88
2021/08/17 09:35:18;;;;;;;;;15.00;8.75;;;;;;;;5038094;28;54837;-88
2021/08/17 09:37:44;;;;;;;;;13.25;7.00;;;;;;;;5037933;28;45770;-88
2021/08/17 09:40:09;;;;;;;;;9.75;8.25;;;;;;;;5043277;28;46556;-88
2021/08/17 09:42:35;;;;;;;;;7.25;7.00;;;;;;;;5037599;28;45574;-87
2021/08/17 09:45:15;;;;;;;;;12.00;8.25;;;;;;;;5044310;28;45472;-88
2021/08/17 09:47:45;;;;;;;;;11.00;7.75;;;;;;;;5028787;28;45919;-89
2021/08/17 09:50:21;;;;;;;;;8.75;6.75;;;;;;;;5036514;28;46646;-88
2021/08/17 09:52:47;;;;;;;;;11.00;9.00;;;;;;;;5038136;28;45588;-87
2021/08/17 09:55:14;;;;;;;;;9.25;7.25;;;;;;;;5041546;28;45561;-88
2021/08/17 09:57:40;;;;;;;;;11.00;6.00;;;;;;;;5025538;28;46946;-88
2021/08/17 10:00:06;;;;;;;;;9.00;9.00;;;;;;;;5043036;28;47057;-88
2021/08/17 10:02:31;;;;;;;;;8.00;7.00;;;;;;;;5037223;28;45445;-88
2021/08/17 10:04:58;;;;;;;;;10.75;10.00;;;;;;;;5021644;28;45566;-88
2021/08/17 10:07:23;;;;;;;;;7.50;7.50;;;;;;;;5037108;28;45512;-88
2021/08/17 10:09:49;;;;;;;;;7.50;6.25;;;;;;;;5037181;28;45699;-88
2021/08/17 10:12:14;;;;;;;;;8.25;6.75;;;;;;;;5035729;28;45574;-89
2021/08/17 10:14:40;;;;;;;;;7.50;7.50;;;;;;;;5040989;28;46642;-88
2021/08/17 10:17:05;;;;;;;;;9.00;8.50;;;;;;;;5037130;28;50497;-88
2021/08/17 10:19:31;;;;;;;;;9.67;7.00;;;;;;;;5026831;28;47175;-88
2021/08/17 10:21:57;;;;;;;;;12.25;8.00;;;;;;;;5040439;28;46180;-88
2021/08/17 10:24:27;;;;;;;;;8.00;8.00;;;;;;;;5028378;28;45414;-88
2021/08/17 10:27:11;;;;;;;;;7.75;7.25;;;;;;;;5036172;28;45492;-89
2021/08/17 10:29:36;;;;;;;;;8.00;8.00;;;;;;;;5045238;28;47194;-88
2021/08/17 10:32:02;;;;;;;;;9.50;8.50;;;;;;;;5051676;28;45549;-87
2021/08/17 10:34:36;;;;;;;;;10.25;7.00;;;;;;;;5036631;28;45414;-88
2021/08/17 10:37:21;;;;;;;;;13.00;8.00;;;;;;;;5047822;28;45350;-88
2021/08/17 10:39:46;;;;;;;;;11.50;7.50;;;;;;;;5040925;28;47122;-88
2021/08/17 10:42:23;;;;;;;;;7.75;6.25;;;;;;;;5036460;28;45478;-88
2021/08/17 10:44:48;;;;;;;;;7.00;7.00;;;;;;;;5038729;28;45364;-88
2021/08/17 10:47:28;;;;;;;;;13.50;10.00;;;;;;;;5040558;28;45516;-88
2021/08/17 10:49:53;;;;;;;;;9.50;7.50;;;;;;;;5026359;28;48543;-88
2021/08/17 10:52:26;;;;;;;;;11.75;7.75;;;;;;;;5035281;28;46206;-88
2021/08/17 10:55:11;;;;;;;;;8.50;7.50;;;;;;;;5035649;28;45518;-88
2021/08/17 10:57:48;;;;;;;;;12.25;7.50;;;;;;;;5041188;28;45456;-88
2021/08/17 11:00:33;;;;;;;;;10.25;8.00;;;;;;;;5034786;28;46143;-88
2021/08/17 11:02:59;;;;;;;;;9.25;8.25;;;;;;;;5024817;28;46320;-88
2021/08/17 11:05:43;;;;;;;;;7.00;5.50;;;;;;;;5042921;28;45642;-88
2021/08/17 11:08:26;;;;;;;;;11.75;8.25;;;;;;;;5037212;28;45440;-88
2021/08/17 11:10:52;;;;;;;;;9.25;7.25;;;;;;;;5037579;28;46222;-88
2021/08/17 11:13:18;;;;;;;;;12.25;10.00;;;;;;;;5030168;28;45410;-88
2021/08/17 11:15:43;;;;;;;;;12.75;8.50;;;;;;;;5041023;28;45494;-88
2021/08/17 11:18:09;;;;;;;;;9.50;8.75;;;;;;;;5039467;28;45353;-88
2021/08/17 11:20:34;;;;;;;;;13.00;8.00;;;;;;;;5036800;28;45828;-88
2021/08/17 11:22:59;;;;;;;;;7.67;7.33;;;;;;;;5037309;28;46709;-88
2021/08/17 11:25:24;;;;;;;;;9.00;9.00;;;;;;;;5039999;28;45593;-88
2021/08/17 11:27:50;;;;;;;;;11.25;9.25;;;;;;;;5037995;28;46410;-88
2021/08/17 11:30:16;;;;;;;;;8.25;7.75;;;;;;;;5039647;28;46876;-88
2021/08/17 11:32:45;;;;;;;;;8.25;7.00;;;;;;;;5037553;28;45418;-87
2021/08/17 11:35:15;;;;;;;;;8.25;6.50;;;;;;;;5041360;28;45674;-88
2021/08/17 11:37:45;;;;;;;;;9.75;8.50;;;;;;;;5038246;28;45552;-88
2021/08/17 11:40:11;;;;;;;;;10.75;6.75;;;;;;;;5038903;28;46816;-88
2021/08/17 11:42:38;;;;;;;;;10.50;9.75;;;;;;;;5038481;28;45719;-88
2021/08/17 11:45:11;;;;;;;;;12.75;8.50;;;;;;;;5041072;28;45486;-88
2021/08/17 11:47:37;;;;;;;;;13.75;7.00;;;;;;;;5040338;28;45413;-88
2021/08/17 11:50:05;;;;;;;;;14.25;9.50;;;;;;;;5035965;28;46237;-87
2021/08/17 11:52:36;;;;;;;;;9.50;7.25;;;;;;;;5043945;28;45559;-88
2021/08/17 11:55:04;;;;;;;;;10.50;8.25;;;;;;;;5037493;28;45608;-88
2021/08/17 11:57:31;;;;;;;;;9.75;7.00;;;;;;;;5041357;28;45483;-88
2021/08/17 12:00:03;;;;;;;;;7.25;5.75;;;;;;;;5038482;28;45639;-88
2021/08/17 12:02:28;;;;;;;;;7.25;6.50;;;;;;;;5037462;28;45819;-88
2021/08/17 12:04:55;;;;;;;;;8.00;6.00;;;;;;;;5036884;28;45447;-87
2021/08/17 12:07:21;;;;;;;;;6.50;6.50;;;;;;;;5037525;28;45524;-89
2021/08/17 12:09:49;;;;;;;;;8.00;6.25;;;;;;;;5037592;28;48163;-88
2021/08/17 12:12:15;;;;;;;;;10.25;7.25;;;;;;;;5041859;28;45747;-89
2021/08/17 12:17:53;;;;;;;;;11.50;8.00;;;;;;;;5044384;22;45630;-88
2021/08/17 12:20:18;;;;;;;;;11.00;8.75;;;;;;;;5019572;28;46117;-88
2021/08/17 12:25:23;;;;;;;;;7.25;7.25;;;;;;;;5134604;22;45563;-84
2021/08/17 12:27:55;;;;;;;;;7.75;7.25;;;;;;;;5058942;27;45639;-83
2021/08/17 12:30:24;;;;;;;;;7.00;7.00;;;;;;;;5049276;27;45504;-83
2021/08/17 12:32:55;;;;;;;;;7.00;5.25;;;;;;;;5048366;28;46415;-84
2021/08/17 12:35:28;;;;;;;;;7.25;7.00;;;;;;;;5049439;28;45727;-84
2021/08/17 12:37:53;;;;;;;;;9.25;6.25;;;;;;;;5047537;27;45626;-84
2021/08/17 12:40:19;;;;;;;;;7.25;6.50;;;;;;;;5054916;27;45476;-84
2021/08/17 12:42:47;;;;;;;;;12.25;8.00;;;;;;;;5057799;28;45755;-84
2021/08/17 12:45:14;;;;;;;;;6.00;5.75;;;;;;;;5051736;28;45569;-83
2021/08/17 12:47:39;;;;;;;;;8.75;6.00;;;;;;;;5072966;27;45953;-84
2021/08/17 12:50:06;;;;;;;;;7.75;6.00;;;;;;;;5052792;27;53394;-83
2021/08/17 12:52:33;;;;;;;;;8.50;6.00;;;;;;;;5046779;28;48546;-84
2021/08/17 12:55:05;;;;;;;;;5.25;5.00;;;;;;;;5044712;28;47524;-84
2021/08/17 12:57:31;;;;;;;;;7.50;4.75;;;;;;;;5058081;28;45976;-84
2021/08/17 12:59:58;;;;;;;;;7.50;4.25;;;;;;;;5048525;28;45542;-83
2021/08/17 13:02:24;;;;;;;;;5.25;5.25;;;;;;;;5058180;27;45636;-87
2021/08/17 13:04:49;;;;;;;;;3.00;3.00;;;;;;;;5052689;27;45682;-86
2021/08/17 13:07:14;;;;;;;;;4.75;4.75;;;;;;;;5047317;27;45508;-86
2021/08/17 13:09:40;;;;;;;;;7.25;3.50;;;;;;;;5045933;28;51388;-87
2021/08/17 13:12:06;;;;;;;;;9.00;6.00;;;;;;;;5051900;28;45621;-86
2021/08/17 13:14:31;;;;;;;;;7.25;4.75;;;;;;;;5061726;27;45711;-86
2021/08/17 13:16:57;;;;;;;;;7.00;4.00;;;;;;;;5047861;27;50847;-86
2021/08/17 13:19:22;;;;;;;;;6.00;4.25;;;;;;;;5062920;27;45666;-87
2021/08/17 13:21:47;;;;;;;;;3.75;3.75;;;;;;;;5045388;27;45526;-86
2021/08/17 13:24:13;;;;;;;;;4.25;4.00;;;;;;;;5051180;27;45523;-87
2021/08/17 13:26:38;;;;;;;;;4.50;3.50;;;;;;;;5046488;28;49254;-86
2021/08/17 13:29:03;;;;;;;;;7.75;6.00;;;;;;;;5057429;27;46820;-85
2021/08/17 13:31:30;;;;;;;;;6.00;4.00;;;;;;;;5060522;28;46084;-86
2021/08/17 13:33:55;;;;;;;;;7.25;5.75;;;;;;;;5061981;27;46395;-86
2021/08/17 13:36:20;;;;;;;;;5.00;4.25;;;;;;;;5045634;27;46237;-86
2021/08/17 13:38:48;;;;;;;;;3.00;3.00;;;;;;;;5058149;27;45590;-86
2021/08/17 13:41:13;;;;;;;;;5.50;3.75;;;;;;;;5064014;28;45504;-87
2021/08/17 13:43:38;;;;;;;;;4.00;3.75;;;;;;;;5056324;27;45563;-86
2021/08/17 13:46:04;;;;;;;;;7.50;5.25;;;;;;;;5051456;28;45511;-86
2021/08/17 13:48:29;;;;;;;;;5.00;4.00;;;;;;;;5053151;27;47253;-87
2021/08/17 13:50:55;;;;;;;;;4.50;3.00;;;;;;;;5064512;28;45912;-85
2021/08/17 13:53:20;;;;;;;;;3.00;3.00;;;;;;;;5061861;27;45654;-87
2021/08/17 13:55:46;;;;;;;;;5.00;4.50;;;;;;;;5061294;27;46542;-86
2021/08/17 13:58:11;;;;;;;;;3.00;3.00;;;;;;;;5051782;28;46501;-86
2021/08/17 14:00:37;;;;;;;;;4.00;4.00;;;;;;;;5062366;27;45611;-86
2021/08/17 14:03:02;;;;;;;;;4.25;4.25;;;;;;;;5064487;27;45654;-85
2021/08/17 14:05:27;;;;;;;;;4.25;3.25;;;;;;;;5057994;27;55840;-85
2021/08/17 14:07:53;;;;;;;;;3.00;3.00;;;;;;;;5059856;27;46896;-86
2021/08/17 14:10:18;;;;;;;;;4.75;3.50;;;;;;;;5063000;27;45670;-86
2021/08/17 14:12:43;;;;;;;;;2.75;2.75;;;;;;;;5047918;27;45654;-86
2021/08/17 14:15:09;;;;;;;;;3.00;3.00;;;;;;;;5049608;27;45420;-87
2021/08/17 14:17:34;;;;;;;;;4.00;4.00;;;;;;;;5048087;27;47804;-86
2021/08/17 14:19:59;;;;;;;;;5.75;4.25;;;;;;;;5060174;27;45660;-86
2021/08/17 14:22:24;;;;;;;;;3.00;3.00;;;;;;;;5055521;27;45583;-86
2021/08/17 14:24:50;;;;;;;;;4.00;4.00;;;;;;;;5054064;28;45572;-87
2021/08/17 14:27:15;;;;;;;;;4.25;4.25;;;;;;;;5061130;27;47146;-86